createdAt,value
2022-11-25T00:00:06.739Z,3.69
2022-11-25T00:02:33.235Z,3.60
2022-11-25T00:04:59.620Z,3.14
2022-11-25T00:07:26.057Z,3.43
2022-11-25T00:09:52.424Z,3.53
2022-11-25T00:12:18.806Z,3.51
2022-11-25T00:14:45.154Z,3.58
2022-11-25T00:17:11.480Z,3.43
2022-11-25T00:19:37.854Z,3.95
2022-11-25T00:22:04.199Z,3.59
2022-11-25T00:24:30.526Z,3.43
2022-11-25T00:26:56.881Z,3.49
2022-11-25T00:29:23.220Z,4.35
2022-11-25T00:31:49.571Z,4.12
2022-11-25T00:34:15.918Z,3.77
2022-11-25T00:36:42.291Z,4.04
2022-11-25T00:39:08.696Z,3.79
2022-11-25T00:41:35.053Z,3.63
2022-11-25T00:44:01.396Z,3.71
2022-11-25T00:46:27.725Z,3.59
2022-11-25T00:48:54.093Z,3.73
2022-11-25T00:51:20.480Z,3.69
2022-11-25T00:53:46.863Z,3.36
2022-11-25T00:56:13.262Z,3.49
2022-11-25T00:58:39.589Z,3.51
2022-11-25T01:01:05.982Z,3.43
2022-11-25T01:03:32.452Z,3.62
2022-11-25T01:05:58.789Z,3.72
2022-11-25T01:08:25.119Z,3.67
2022-11-25T01:10:51.442Z,3.69
2022-11-25T01:13:17.764Z,3.51
2022-11-25T01:15:44.133Z,3.53
2022-11-25T01:18:10.515Z,3.57
2022-11-25T01:20:36.893Z,3.71
2022-11-25T01:23:03.278Z,3.61
2022-11-25T01:25:29.617Z,3.41
2022-11-25T01:27:55.979Z,3.30
2022-11-25T01:30:22.366Z,3.44
2022-11-25T01:32:48.737Z,3.27
2022-11-25T01:35:15.065Z,3.28
2022-11-25T01:37:41.401Z,3.21
2022-11-25T01:40:07.760Z,3.52
2022-11-25T01:42:34.137Z,3.51
2022-11-25T01:45:00.527Z,3.69
2022-11-25T01:47:26.863Z,3.32
2022-11-25T01:49:53.242Z,3.56
2022-11-25T01:52:19.607Z,3.33
2022-11-25T01:54:45.942Z,3.73
2022-11-25T01:57:12.266Z,3.75
2022-11-25T01:59:38.624Z,4.04
2022-11-25T02:02:05.035Z,3.49
2022-11-25T02:04:31.425Z,3.55
2022-11-25T02:06:57.764Z,3.44
2022-11-25T02:09:24.131Z,3.42
2022-11-25T02:11:50.498Z,3.70
2022-11-25T02:14:16.873Z,3.37
2022-11-25T02:16:43.311Z,3.85
2022-11-25T02:19:09.679Z,3.64
2022-11-25T02:21:36.047Z,3.79
2022-11-25T02:24:02.425Z,3.52
2022-11-25T02:26:28.792Z,3.31
2022-11-25T02:28:55.169Z,3.42
2022-11-25T02:31:21.558Z,3.70
2022-11-25T02:33:47.919Z,3.56
2022-11-25T02:36:14.251Z,3.55
2022-11-25T02:38:40.585Z,3.55
2022-11-25T02:41:06.953Z,3.65
2022-11-25T02:43:33.333Z,3.57
2022-11-25T02:45:59.779Z,3.70
2022-11-25T02:48:45.883Z,3.59
2022-11-25T02:51:12.509Z,3.91
2022-11-25T02:53:38.850Z,4.06
2022-11-25T02:56:05.212Z,3.89
2022-11-25T02:58:31.601Z,3.72
2022-11-25T03:00:58.019Z,3.89
2022-11-25T03:03:24.405Z,4.17
2022-11-25T03:05:50.811Z,3.88
2022-11-25T03:08:17.153Z,4.38
2022-11-25T03:10:43.486Z,4.05
2022-11-25T03:13:09.866Z,4.18
2022-11-25T03:15:36.229Z,4.55
2022-11-25T03:18:02.548Z,4.31
2022-11-25T03:20:28.870Z,4.31
2022-11-25T03:22:55.196Z,4.47
2022-11-25T03:25:21.524Z,4.80
2022-11-25T03:27:47.871Z,5.25
2022-11-25T03:30:14.253Z,4.98
2022-11-25T03:32:40.624Z,5.01
2022-11-25T03:35:06.942Z,5.24
2022-11-25T03:37:33.308Z,5.08
2022-11-25T03:39:59.688Z,4.62
2022-11-25T03:42:26.079Z,5.24
2022-11-25T03:44:52.457Z,5.19
2022-11-25T03:47:18.844Z,4.86
2022-11-25T03:49:45.212Z,5.01
2022-11-25T03:52:11.598Z,5.01
2022-11-25T03:54:38.148Z,4.76
2022-11-25T03:57:04.662Z,5.34
2022-11-25T03:59:31.029Z,5.41
2022-11-25T04:01:57.384Z,5.91
2022-11-25T04:04:23.715Z,5.15
2022-11-25T04:06:50.041Z,4.83
2022-11-25T04:09:16.444Z,5.04
2022-11-25T04:11:42.796Z,5.28
2022-11-25T04:14:09.118Z,5.46
2022-11-25T04:16:35.505Z,5.50
2022-11-25T04:19:01.889Z,5.30
2022-11-25T04:21:28.279Z,4.99
2022-11-25T04:23:54.611Z,4.86
2022-11-25T04:26:20.973Z,5.24
2022-11-25T04:28:47.348Z,5.00
2022-11-25T04:31:13.745Z,4.62
2022-11-25T04:33:40.073Z,4.83
2022-11-25T04:36:06.447Z,5.03
2022-11-25T04:38:32.818Z,5.28
2022-11-25T04:40:59.204Z,5.06
2022-11-25T04:43:25.579Z,5.04
2022-11-25T04:46:13.040Z,5.07
2022-11-25T04:48:38.283Z,5.11
2022-11-25T04:51:04.671Z,4.94
2022-11-25T04:53:31.061Z,5.01
2022-11-25T04:55:57.442Z,5.51
2022-11-25T04:58:23.816Z,5.21
2022-11-25T05:00:50.193Z,5.28
2022-11-25T05:03:16.534Z,5.29
2022-11-25T05:05:42.893Z,5.15
2022-11-25T05:08:09.264Z,5.18
2022-11-25T05:10:35.664Z,5.38
2022-11-25T05:13:01.994Z,5.70
2022-11-25T05:15:28.322Z,5.65
2022-11-25T05:17:54.721Z,5.58
2022-11-25T05:20:21.061Z,5.63
2022-11-25T05:22:47.404Z,5.32
2022-11-25T05:25:13.767Z,5.97
2022-11-25T05:27:40.105Z,5.99
2022-11-25T05:30:06.434Z,5.80
2022-11-25T05:32:32.821Z,5.77
2022-11-25T05:34:59.185Z,5.81
2022-11-25T05:37:25.543Z,5.73
2022-11-25T05:39:51.945Z,5.64
2022-11-25T05:42:18.326Z,5.62
2022-11-25T05:44:44.712Z,6.68
2022-11-25T05:47:11.045Z,7.32
2022-11-25T05:49:37.370Z,6.92
2022-11-25T05:52:03.739Z,5.97
2022-11-25T05:54:30.125Z,5.81
2022-11-25T05:56:56.516Z,5.56
2022-11-25T05:59:22.903Z,5.44
2022-11-25T06:01:49.277Z,5.14
2022-11-25T06:04:15.662Z,5.53
2022-11-25T06:06:42.037Z,5.01
2022-11-25T06:09:08.384Z,5.11
2022-11-25T06:11:34.756Z,5.31
2022-11-25T06:14:01.094Z,4.93
2022-11-25T06:16:27.440Z,5.13
2022-11-25T06:18:53.859Z,4.82
2022-11-25T06:21:20.206Z,5.06
2022-11-25T06:23:46.535Z,4.97
2022-11-25T06:26:12.869Z,5.55
2022-11-25T06:28:39.207Z,5.41
2022-11-25T06:31:05.629Z,5.10
2022-11-25T06:33:31.988Z,5.23
2022-11-25T06:35:58.321Z,5.37
2022-11-25T06:38:24.654Z,5.53
2022-11-25T06:40:51.797Z,5.34
2022-11-25T06:43:19.466Z,5.23
2022-11-25T06:45:45.823Z,5.35
2022-11-25T06:48:12.154Z,5.38
2022-11-25T06:50:38.519Z,5.22
2022-11-25T06:53:04.862Z,5.16
2022-11-25T06:55:31.238Z,5.40
2022-11-25T06:58:20.255Z,5.37
2022-11-25T07:00:43.967Z,5.58
2022-11-25T07:03:10.416Z,5.43
2022-11-25T07:05:36.863Z,5.72
2022-11-25T07:08:03.240Z,5.65
2022-11-25T07:10:29.705Z,5.43
2022-11-25T07:12:56.052Z,5.39
2022-11-25T07:15:22.429Z,5.93
2022-11-25T07:17:48.766Z,5.75
2022-11-25T07:20:15.132Z,5.58
2022-11-25T07:22:41.491Z,5.64
2022-11-25T07:25:07.813Z,5.49
2022-11-25T07:27:34.143Z,5.34
2022-11-25T07:31:09.270Z,5.13
2022-11-25T07:32:46.822Z,6.07
2022-11-25T07:35:13.198Z,6.38
2022-11-25T07:37:39.550Z,5.54
2022-11-25T07:40:05.891Z,5.38
2022-11-25T07:42:32.281Z,5.53
2022-11-25T07:44:58.649Z,5.73
2022-11-25T07:47:25.038Z,5.73
2022-11-25T07:49:51.413Z,5.73
2022-11-25T07:52:17.747Z,5.54
2022-11-25T07:54:44.082Z,5.62
2022-11-25T07:57:10.450Z,5.45
2022-11-25T07:59:37.024Z,5.52
2022-11-25T08:02:03.630Z,5.07
2022-11-25T08:04:30.031Z,5.53
2022-11-25T08:06:56.374Z,5.52
2022-11-25T08:09:22.742Z,5.36
2022-11-25T08:11:49.161Z,5.47
2022-11-25T08:14:15.577Z,5.69
2022-11-25T08:16:42.095Z,5.70
2022-11-25T08:19:08.459Z,5.72
2022-11-25T08:21:34.838Z,5.80
2022-11-25T08:24:01.227Z,6.11
2022-11-25T08:26:27.606Z,5.13
2022-11-25T08:28:53.959Z,5.17
2022-11-25T08:31:20.323Z,4.83
2022-11-25T08:33:46.733Z,5.36
2022-11-25T08:36:13.128Z,5.44
2022-11-25T08:38:39.463Z,6.00
2022-11-25T08:41:05.831Z,6.22
2022-11-25T08:43:32.168Z,6.69
2022-11-25T08:45:58.656Z,6.77
2022-11-25T08:48:25.099Z,6.67
2022-11-25T08:50:51.481Z,6.39
2022-11-25T08:53:19.277Z,6.06
2022-11-25T08:55:45.649Z,5.75
2022-11-25T08:58:12.031Z,5.64
2022-11-25T09:00:38.416Z,6.32
2022-11-25T09:03:04.813Z,6.17
2022-11-25T09:05:31.195Z,6.05
2022-11-25T09:07:57.639Z,6.05
2022-11-25T09:10:24.049Z,5.79
2022-11-25T09:12:50.395Z,5.89
2022-11-25T09:15:16.739Z,5.15
2022-11-25T09:17:43.095Z,5.01
2022-11-25T09:20:09.445Z,5.02
2022-11-25T09:22:35.787Z,5.35
2022-11-25T09:25:02.136Z,5.18
2022-11-25T09:27:28.469Z,5.06
2022-11-25T09:29:54.853Z,4.92
2022-11-25T09:32:21.223Z,5.31
2022-11-25T09:34:47.608Z,5.30
2022-11-25T09:37:13.943Z,5.58
2022-11-25T09:39:40.321Z,5.55
2022-11-25T09:42:06.727Z,5.76
2022-11-25T09:44:33.099Z,5.21
2022-11-25T09:46:59.505Z,4.91
2022-11-25T09:49:25.904Z,4.54
2022-11-25T09:51:52.281Z,3.94
2022-11-25T09:54:18.635Z,3.51
2022-11-25T09:56:45.006Z,3.22
2022-11-25T09:59:11.352Z,3.18
2022-11-25T10:01:37.713Z,3.42
2022-11-25T10:04:04.106Z,3.20
2022-11-25T10:06:30.558Z,3.45
2022-11-25T10:08:56.949Z,3.04
2022-11-25T10:11:23.326Z,3.34
2022-11-25T10:13:49.676Z,3.59
2022-11-25T10:16:16.076Z,3.32
2022-11-25T10:18:42.478Z,3.27
2022-11-25T10:21:08.883Z,3.17
2022-11-25T10:23:35.227Z,3.36
2022-11-25T10:26:01.578Z,3.63
2022-11-25T10:28:27.904Z,3.26
2022-11-25T10:30:54.308Z,3.21
2022-11-25T10:33:20.733Z,3.45
2022-11-25T10:35:47.072Z,3.39
2022-11-25T10:38:18.570Z,3.17
2022-11-25T10:40:45.459Z,3.48
2022-11-25T10:43:11.837Z,3.59
2022-11-25T10:45:38.289Z,3.12
2022-11-25T10:48:04.669Z,3.28
2022-11-25T10:50:31.003Z,3.06
2022-11-25T10:52:57.322Z,2.92
2022-11-25T10:55:23.692Z,3.21
2022-11-25T10:57:51.087Z,3.01
2022-11-25T11:00:17.717Z,3.07
2022-11-25T11:02:44.108Z,3.02
2022-11-25T11:05:10.510Z,2.94
2022-11-25T11:07:36.985Z,3.01
2022-11-25T11:10:03.430Z,2.86
2022-11-25T11:12:29.797Z,2.94
2022-11-25T11:14:56.145Z,2.83
2022-11-25T11:17:22.474Z,2.84
2022-11-25T11:19:48.819Z,3.11
2022-11-25T11:22:15.187Z,3.22
2022-11-25T11:24:41.562Z,2.97
2022-11-25T11:27:07.899Z,3.00
2022-11-25T11:29:34.231Z,3.12
2022-11-25T11:32:00.606Z,3.15
2022-11-25T11:34:26.970Z,2.65
2022-11-25T11:36:53.315Z,2.73
2022-11-25T11:39:19.677Z,3.06
2022-11-25T11:41:46.001Z,3.12
2022-11-25T11:44:12.370Z,3.32
2022-11-25T11:46:38.823Z,3.05
2022-11-25T11:49:05.174Z,3.25
2022-11-25T11:51:31.509Z,2.99
2022-11-25T11:53:57.885Z,2.77
2022-11-25T11:56:39.555Z,2.62
2022-11-25T11:59:05.935Z,2.64
2022-11-25T12:01:32.384Z,2.74
2022-11-25T12:03:58.792Z,2.55
2022-11-25T12:06:25.139Z,2.62
2022-11-25T12:08:51.535Z,2.72
2022-11-25T12:11:17.909Z,2.74
2022-11-25T12:13:44.264Z,2.51
2022-11-25T12:16:10.625Z,2.59
2022-11-25T12:18:36.998Z,2.53
2022-11-25T12:21:03.349Z,2.49
2022-11-25T12:23:29.691Z,2.40
2022-11-25T12:25:56.057Z,2.19
2022-11-25T12:28:22.386Z,2.40
2022-11-25T12:30:48.713Z,2.64
2022-11-25T12:33:15.109Z,2.55
2022-11-25T12:35:41.455Z,2.69
2022-11-25T12:38:07.793Z,2.65
2022-11-25T12:40:34.160Z,2.62
2022-11-25T12:43:00.507Z,2.79
2022-11-25T12:45:26.932Z,2.66
2022-11-25T12:47:53.310Z,2.99
2022-11-25T12:50:19.652Z,2.98
2022-11-25T12:52:45.999Z,2.90
2022-11-25T12:55:12.373Z,2.73
2022-11-25T12:57:38.773Z,3.10
2022-11-25T13:00:39.799Z,2.87
2022-11-25T13:02:51.552Z,2.96
2022-11-25T13:05:39.623Z,3.03
2022-11-25T13:08:04.274Z,3.03
2022-11-25T13:10:30.644Z,3.07
2022-11-25T13:12:57.227Z,2.97
2022-11-25T13:15:24.119Z,3.04
2022-11-25T13:17:50.805Z,3.07
2022-11-25T13:20:17.211Z,3.15
2022-11-25T13:22:43.546Z,3.05
2022-11-25T13:25:09.939Z,3.16
2022-11-25T13:27:36.282Z,3.20
2022-11-25T13:30:02.619Z,2.89
2022-11-25T13:32:28.987Z,2.91
2022-11-25T13:34:55.318Z,3.28
2022-11-25T13:37:21.684Z,2.88
2022-11-25T13:39:48.059Z,2.86
2022-11-25T13:42:14.394Z,3.06
2022-11-25T13:44:40.765Z,2.91
2022-11-25T13:47:07.107Z,3.03
2022-11-25T13:49:33.454Z,2.93
2022-11-25T13:51:59.789Z,2.70
2022-11-25T13:54:26.155Z,2.95
2022-11-25T13:56:52.676Z,2.93
2022-11-25T13:59:19.117Z,2.83
2022-11-25T14:01:45.581Z,2.87
2022-11-25T14:04:11.992Z,2.80
2022-11-25T14:06:38.378Z,2.97
2022-11-25T14:09:04.764Z,2.95
2022-11-25T14:11:31.148Z,3.04
2022-11-25T14:13:57.487Z,3.47
2022-11-25T14:16:23.884Z,3.78
2022-11-25T14:21:36.659Z,3.14
2022-11-25T14:24:03.035Z,4.36
2022-11-25T14:26:48.701Z,4.05
2022-11-25T14:29:15.682Z,3.38
2022-11-25T14:31:42.068Z,3.18
2022-11-25T14:34:08.507Z,3.01
2022-11-25T14:36:34.885Z,3.45
2022-11-25T14:39:01.218Z,3.61
2022-11-25T14:41:27.600Z,3.64
2022-11-25T14:43:53.966Z,3.41
2022-11-25T14:46:20.325Z,3.49
2022-11-25T14:48:46.719Z,3.55
2022-11-25T14:51:13.055Z,3.57
2022-11-25T14:53:44.368Z,3.35
2022-11-25T14:56:13.819Z,3.48
2022-11-25T14:58:40.200Z,3.53
2022-11-25T15:01:06.573Z,3.42
2022-11-25T15:03:32.938Z,3.45
2022-11-25T15:05:59.381Z,3.66
2022-11-25T15:08:25.765Z,3.38
2022-11-25T15:10:52.147Z,3.91
2022-11-25T15:13:18.524Z,3.55
2022-11-25T15:15:44.861Z,3.47
2022-11-25T15:18:11.187Z,3.55
2022-11-25T15:20:37.548Z,3.87
2022-11-25T15:23:03.938Z,3.64
2022-11-25T15:25:30.322Z,3.45
2022-11-25T15:27:56.762Z,3.26
2022-11-25T15:30:23.142Z,3.07
2022-11-25T15:32:49.518Z,3.31
2022-11-25T15:35:15.852Z,3.27
2022-11-25T15:37:42.210Z,3.16
2022-11-25T15:40:08.591Z,4.01
2022-11-25T15:42:34.936Z,7.00
2022-11-25T15:45:07.012Z,5.19
2022-11-25T15:47:34.925Z,3.10
2022-11-25T15:50:01.314Z,4.09
2022-11-25T15:52:27.709Z,3.79
2022-11-25T15:54:54.079Z,4.06
2022-11-25T15:57:20.450Z,3.99
2022-11-25T15:59:46.797Z,3.66
2022-11-25T16:02:13.197Z,4.30
2022-11-25T16:04:39.533Z,4.56
2022-11-25T16:07:05.852Z,3.88
2022-11-25T16:09:32.247Z,3.53
2022-11-25T16:11:58.586Z,3.94
2022-11-25T16:14:24.955Z,3.97
2022-11-25T16:16:51.352Z,3.99
2022-11-25T16:19:17.794Z,4.40
2022-11-25T16:21:44.172Z,4.25
2022-11-25T16:24:10.553Z,4.26
2022-11-25T16:26:36.974Z,4.02
2022-11-25T16:29:03.387Z,4.01
2022-11-25T16:31:29.832Z,4.30
2022-11-25T16:33:56.224Z,4.38
2022-11-25T16:36:22.552Z,4.77
2022-11-25T16:38:48.921Z,4.61
2022-11-25T16:41:15.309Z,4.67
2022-11-25T16:43:41.654Z,4.28
2022-11-25T16:46:08.029Z,4.44
2022-11-25T16:48:34.461Z,8.58
2022-11-25T16:51:00.854Z,6.64
2022-11-25T16:53:27.231Z,4.56
2022-11-25T16:55:53.587Z,4.17
2022-11-25T16:58:19.960Z,4.03
2022-11-25T17:00:46.300Z,3.89
2022-11-25T17:03:12.802Z,3.64
2022-11-25T17:05:39.202Z,3.47
2022-11-25T17:08:05.679Z,3.55
2022-11-25T17:10:32.040Z,3.96
2022-11-25T17:12:58.371Z,3.79
2022-11-25T17:15:24.842Z,3.87
2022-11-25T17:17:51.352Z,3.54
2022-11-25T17:20:17.740Z,3.45
2022-11-25T17:22:44.127Z,4.15
2022-11-25T17:25:10.505Z,5.39
2022-11-25T17:27:36.844Z,4.60
2022-11-25T17:30:03.177Z,5.00
2022-11-25T17:32:29.695Z,5.11
2022-11-25T17:34:56.103Z,4.95
2022-11-25T17:37:22.439Z,4.80
2022-11-25T17:39:48.815Z,8.28
2022-11-25T17:42:15.154Z,7.93
2022-11-25T17:44:41.588Z,7.74
2022-11-25T17:47:07.986Z,4.25
2022-11-25T17:49:34.392Z,3.54
2022-11-25T17:52:00.736Z,10.49
2022-11-25T17:54:27.087Z,15.58
2022-11-25T17:56:53.464Z,20.84
2022-11-25T17:59:19.842Z,17.55
2022-11-25T18:01:46.261Z,15.47
2022-11-25T18:04:16.237Z,11.40
2022-11-25T18:06:42.834Z,11.42
2022-11-25T18:09:09.179Z,12.45
2022-11-25T18:11:35.524Z,12.83
2022-11-25T18:14:01.909Z,12.10
2022-11-25T18:16:28.324Z,13.01
2022-11-25T18:18:54.692Z,6.53
2022-11-25T18:21:21.022Z,7.03
2022-11-25T18:23:47.347Z,6.77
2022-11-25T18:26:13.727Z,6.87
2022-11-25T18:28:40.113Z,5.97
2022-11-25T18:31:06.548Z,5.79
2022-11-25T18:33:32.985Z,5.26
2022-11-25T18:35:59.318Z,4.66
2022-11-25T18:38:25.639Z,4.83
2022-11-25T18:40:53.935Z,6.22
2022-11-25T18:43:20.640Z,7.21
2022-11-25T18:45:47.040Z,9.14
2022-11-25T18:48:13.465Z,6.77
2022-11-25T18:50:39.807Z,10.21
2022-11-25T18:53:06.194Z,30.44
2022-11-25T18:55:32.581Z,24.36
2022-11-25T18:57:58.969Z,15.66
2022-11-25T19:00:33.493Z,12.13
2022-11-25T19:03:00.279Z,3.66
2022-11-25T19:05:26.697Z,3.91
2022-11-25T19:07:53.154Z,3.39
2022-11-25T19:10:19.550Z,3.33
2022-11-25T19:12:45.941Z,3.94
2022-11-25T19:15:12.321Z,4.17
2022-11-25T19:17:38.668Z,4.28
2022-11-25T19:20:05.040Z,3.85
2022-11-25T19:22:31.394Z,4.65
2022-11-25T19:24:57.753Z,5.29
2022-11-25T19:27:24.138Z,4.80
2022-11-25T19:29:50.509Z,4.88
2022-11-25T19:32:16.841Z,4.85
2022-11-25T19:34:43.218Z,4.90
2022-11-25T19:37:09.555Z,4.75
2022-11-25T19:39:35.878Z,5.77
2022-11-25T19:42:02.229Z,5.19
2022-11-25T19:44:28.593Z,5.13
2022-11-25T19:49:41.327Z,5.19
2022-11-25T19:52:07.671Z,4.48
2022-11-25T19:54:34.073Z,4.40
2022-11-25T19:57:00.526Z,3.50
2022-11-25T19:59:26.910Z,3.75
2022-11-25T20:01:53.368Z,4.51
2022-11-25T20:04:19.775Z,4.70
2022-11-25T20:06:46.107Z,3.93
2022-11-25T20:09:12.464Z,3.99
2022-11-25T20:11:38.791Z,4.07
2022-11-25T20:14:05.110Z,4.28
2022-11-25T20:16:31.532Z,4.03
2022-11-25T20:18:57.945Z,4.46
2022-11-25T20:21:24.291Z,3.80
2022-11-25T20:23:50.653Z,3.32
2022-11-25T20:26:17.029Z,3.33
2022-11-25T20:28:43.406Z,3.56
2022-11-25T20:31:09.782Z,3.26
2022-11-25T20:33:36.115Z,3.44
2022-11-25T20:36:02.437Z,3.65
2022-11-25T20:38:28.802Z,3.93
2022-11-25T20:40:55.145Z,3.67
2022-11-25T20:43:21.466Z,3.76
2022-11-25T20:45:47.925Z,3.90
2022-11-25T20:48:14.300Z,4.11
2022-11-25T20:50:40.627Z,3.83
2022-11-25T20:53:08.164Z,3.65
2022-11-25T20:55:34.561Z,4.25
2022-11-25T20:58:00.926Z,4.50
2022-11-25T21:00:27.251Z,3.89
2022-11-25T21:02:53.696Z,4.00
2022-11-25T21:05:20.129Z,4.29
2022-11-25T21:07:46.635Z,3.88
2022-11-25T21:10:13.089Z,3.62
2022-11-25T21:12:39.468Z,3.60
2022-11-25T21:15:05.840Z,3.38
2022-11-25T21:17:32.179Z,3.47
2022-11-25T21:19:58.503Z,3.58
2022-11-25T21:22:24.818Z,3.64
2022-11-25T21:24:51.172Z,3.69
2022-11-25T21:27:17.484Z,4.21
2022-11-25T21:29:43.857Z,4.23
2022-11-25T21:32:10.296Z,4.47
2022-11-25T21:34:36.941Z,4.02
2022-11-25T21:37:03.533Z,4.50
2022-11-25T21:39:29.862Z,3.81
2022-11-25T21:41:56.198Z,3.84
2022-11-25T21:44:22.560Z,3.63
2022-11-25T21:46:48.895Z,3.62
2022-11-25T21:49:15.210Z,3.29
2022-11-25T21:51:41.533Z,2.83
2022-11-25T21:54:07.894Z,2.90
2022-11-25T21:56:34.221Z,2.84
2022-11-25T21:59:00.537Z,2.74
2022-11-25T22:01:26.945Z,2.73
2022-11-25T22:03:53.322Z,2.47
2022-11-25T22:06:19.692Z,2.68
2022-11-25T22:08:46.070Z,2.40
2022-11-25T22:11:12.393Z,2.11
2022-11-25T22:13:38.728Z,2.06
2022-11-25T22:16:05.068Z,2.24
2022-11-25T22:18:31.501Z,2.03
2022-11-25T22:20:57.845Z,2.05
2022-11-25T22:23:24.204Z,1.75
2022-11-25T22:25:50.547Z,1.91
2022-11-25T22:28:16.917Z,2.08
2022-11-25T22:30:43.252Z,2.43
2022-11-25T22:33:09.575Z,2.42
2022-11-25T22:35:35.943Z,2.87
2022-11-25T22:38:02.266Z,2.23
2022-11-25T22:40:28.637Z,3.48
2022-11-25T22:42:55.035Z,3.51
2022-11-25T22:45:21.367Z,3.01
2022-11-25T22:47:47.733Z,3.77
2022-11-25T22:50:14.112Z,6.23
2022-11-25T22:52:40.450Z,8.05
2022-11-25T22:55:11.113Z,5.74
2022-11-25T22:57:39.926Z,5.02
2022-11-25T23:00:06.299Z,2.19
2022-11-25T23:02:32.767Z,1.90
2022-11-25T23:04:59.170Z,1.92
2022-11-25T23:07:25.606Z,1.88
2022-11-25T23:09:51.960Z,1.91
2022-11-25T23:12:18.330Z,2.13
2022-11-25T23:14:44.707Z,2.02
2022-11-25T23:17:11.075Z,2.04
2022-11-25T23:19:37.448Z,2.02
2022-11-25T23:22:03.778Z,2.02
2022-11-25T23:24:30.102Z,2.05
2022-11-25T23:26:56.397Z,1.91
2022-11-25T23:29:22.720Z,2.11
2022-11-25T23:31:49.116Z,2.02
2022-11-25T23:34:15.554Z,2.12
2022-11-25T23:36:41.880Z,1.97
2022-11-25T23:39:08.203Z,1.87
2022-11-25T23:41:34.585Z,1.82
2022-11-25T23:44:00.953Z,2.04
2022-11-25T23:46:27.334Z,1.82
2022-11-25T23:48:53.779Z,1.67
2022-11-25T23:51:20.184Z,1.62
2022-11-25T23:53:46.578Z,1.85
2022-11-25T23:56:12.906Z,1.68
2022-11-25T23:58:39.278Z,1.75
